sensor_id;sensor_type;location;lat;lon;timestamp;pressure;altitude;pressure_sealevel;temperature;humidity
2192;BME280;1102;49.718;11.902;2022-11-15T00:00:49;96246.13;;;1.65;100.00
2192;BME280;1102;49.718;11.902;2022-11-15T00:03:34;96244.63;;;1.54;100.00
2192;BME280;1102;49.718;11.902;2022-11-15T00:06:20;96258.38;;;1.64;100.00
2192;BME280;1102;49.718;11.902;2022-11-15T04:55:44;96066.47;;;-0.68;100.00
2192;BME280;1102;49.718;11.902;2022-11-15T04:58:29;96088.50;;;-0.55;100.00
2192;BME280;1102;49.718;11.902;2022-11-15T05:01:15;96093.19;;;-0.47;100.00
2192;BME280;1102;49.718;11.902;2022-11-15T05:04:01;96092.13;;;-0.41;100.00
2192;BME280;1102;49.718;11.902;2022-11-15T05:07:04;96073.72;;;-0.55;100.00
2192;BME280;1102;49.718;11.902;2022-11-15T05:09:49;96088.25;;;-0.49;100.00
2192;BME280;1102;49.718;11.902;2022-11-15T05:12:34;96085.16;;;-0.66;100.00
2192;BME280;1102;49.718;11.902;2022-11-15T05:15:19;96065.69;;;-0.89;100.00
2192;BME280;1102;49.718;11.902;2022-11-15T05:18:05;96089.06;;;-0.79;100.00
2192;BME280;1102;49.718;11.902;2022-11-15T05:20:50;96068.81;;;-0.82;100.00
2192;BME280;1102;49.718;11.902;2022-11-15T05:23:35;96066.22;;;-0.77;100.00
2192;BME280;1102;49.718;11.902;2022-11-15T05:26:20;96090.59;;;-0.88;100.00
2192;BME280;1102;49.718;11.902;2022-11-15T05:29:05;96057.63;;;-1.08;100.00
2192;BME280;1102;49.718;11.902;2022-11-15T05:31:50;96083.88;;;-0.79;100.00
2192;BME280;1102;49.718;11.902;2022-11-15T05:34:36;96069.84;;;-0.73;100.00
2192;BME280;1102;49.718;11.902;2022-11-15T05:37:21;96079.44;;;-0.63;100.00
2192;BME280;1102;49.718;11.902;2022-11-15T05:40:07;96076.31;;;-0.45;100.00
2192;BME280;1102;49.718;11.902;2022-11-15T05:42:53;96076.59;;;-0.51;100.00
2192;BME280;1102;49.718;11.902;2022-11-15T05:45:38;96053.75;;;-0.75;100.00
2192;BME280;1102;49.718;11.902;2022-11-15T05:48:23;96075.56;;;-0.61;100.00
2192;BME280;1102;49.718;11.902;2022-11-15T05:51:08;96033.53;;;-0.93;100.00
2192;BME280;1102;49.718;11.902;2022-11-15T05:53:55;96034.31;;;-0.87;100.00
2192;BME280;1102;49.718;11.902;2022-11-15T05:56:42;96041.28;;;-0.73;100.00
2192;BME280;1102;49.718;11.902;2022-11-15T05:59:29;96071.91;;;-0.44;100.00
2192;BME280;1102;49.718;11.902;2022-11-15T06:02:15;96078.13;;;-0.35;100.00
2192;BME280;1102;49.718;11.902;2022-11-15T06:05:00;96055.16;;;0.03;100.00
2192;BME280;1102;49.718;11.902;2022-11-15T06:07:45;96073.13;;;-0.11;100.00
2192;BME280;1102;49.718;11.902;2022-11-15T06:10:32;96083.31;;;-0.25;100.00
2192;BME280;1102;49.718;11.902;2022-11-15T06:13:17;96076.56;;;-0.46;100.00
2192;BME280;1102;49.718;11.902;2022-11-15T06:16:03;96054.53;;;-0.64;100.00
2192;BME280;1102;49.718;11.902;2022-11-15T06:18:48;96070.34;;;-0.50;100.00
2192;BME280;1102;49.718;11.902;2022-11-15T06:21:33;96047.25;;;-0.72;100.00
2192;BME280;1102;49.718;11.902;2022-11-15T06:24:19;96047.00;;;-0.71;100.00
2192;BME280;1102;49.718;11.902;2022-11-15T06:27:04;96075.28;;;-0.69;100.00
2192;BME280;1102;49.718;11.902;2022-11-15T06:29:49;96080.47;;;-0.69;100.00
2192;BME280;1102;49.718;11.902;2022-11-15T06:32:34;96062.56;;;-0.71;100.00
2192;BME280;1102;49.718;11.902;2022-11-15T06:35:20;96043.13;;;-0.99;100.00
2192;BME280;1102;49.718;11.902;2022-11-15T06:38:07;96058.41;;;-0.82;100.00
2192;BME280;1102;49.718;11.902;2022-11-15T06:40:53;96073.22;;;-0.87;100.00
2192;BME280;1102;49.718;11.902;2022-11-15T06:43:38;96073.47;;;-0.84;100.00
2192;BME280;1102;49.718;11.902;2022-11-15T06:46:23;96081.25;;;-0.84;100.00
2192;BME280;1102;49.718;11.902;2022-11-15T06:49:09;96056.34;;;-0.95;100.00
2192;BME280;1102;49.718;11.902;2022-11-15T06:51:54;96035.59;;;-1.10;100.00
2192;BME280;1102;49.718;11.902;2022-11-15T06:54:39;95996.19;;;-1.02;100.00
2192;BME280;1102;49.718;11.902;2022-11-15T06:57:24;96080.22;;;-0.47;100.00
2192;BME280;1102;49.718;11.902;2022-11-15T07:00:10;96061.78;;;-0.81;100.00
2192;BME280;1102;49.718;11.902;2022-11-15T07:02:59;96044.16;;;-0.74;100.00
2192;BME280;1102;49.718;11.902;2022-11-15T07:05:53;96050.66;;;-0.67;100.00
2192;BME280;1102;49.718;11.902;2022-11-15T07:08:39;96088.00;;;-0.37;100.00
2192;BME280;1102;49.718;11.902;2022-11-15T07:11:26;96065.69;;;-0.64;100.00
2192;BME280;1102;49.718;11.902;2022-11-15T07:14:11;96075.03;;;-0.47;100.00
2192;BME280;1102;49.718;11.902;2022-11-15T07:16:56;96080.75;;;-0.71;100.00
2192;BME280;1102;49.718;11.902;2022-11-15T07:19:42;96080.47;;;-0.69;100.00
2192;BME280;1102;49.718;11.902;2022-11-15T07:22:27;96065.69;;;-0.69;100.00
2192;BME280;1102;49.718;11.902;2022-11-15T07:25:12;96082.81;;;-0.37;100.00
2192;BME280;1102;49.718;11.902;2022-11-15T07:27:59;96062.56;;;-0.50;100.00
2192;BME280;1102;49.718;11.902;2022-11-15T07:30:44;96078.66;;;-0.38;100.00
2192;BME280;1102;49.718;11.902;2022-11-15T07:33:37;96081.25;;;-0.38;100.00
2192;BME280;1102;49.718;11.902;2022-11-15T07:36:36;96063.09;;;-0.53;100.00
2192;BME280;1102;49.718;11.902;2022-11-15T07:39:21;96064.38;;;-0.51;100.00
2192;BME280;1102;49.718;11.902;2022-11-15T07:42:07;96059.47;;;-0.52;100.00
2192;BME280;1102;49.718;11.902;2022-11-15T07:45:10;96050.88;;;-0.53;100.00
2192;BME280;1102;49.718;11.902;2022-11-15T07:47:56;96094.66;;;-0.01;100.00
2192;BME280;1102;49.718;11.902;2022-11-15T07:50:42;96055.97;;;-0.07;100.00
2192;BME280;1102;49.718;11.902;2022-11-15T07:53:27;96076.69;;;0.13;100.00
2192;BME280;1102;49.718;11.902;2022-11-15T07:56:13;96048.94;;;0.04;100.00
2192;BME280;1102;49.718;11.902;2022-11-15T07:58:58;96043.50;;;0.00;100.00
2192;BME280;1102;49.718;11.902;2022-11-15T08:01:43;96073.50;;;0.26;100.00
2192;BME280;1102;49.718;11.902;2022-11-15T08:04:29;96073.75;;;0.40;100.00
2192;BME280;1102;49.718;11.902;2022-11-15T08:07:14;96044.09;;;0.36;100.00
2192;BME280;1102;49.718;11.902;2022-11-15T08:09:59;96070.28;;;0.55;100.00
2192;BME280;1102;49.718;11.902;2022-11-15T08:12:45;96064.22;;;0.65;100.00
2192;BME280;1102;49.718;11.902;2022-11-15T08:15:32;96065.78;;;0.71;100.00
2192;BME280;1102;49.718;11.902;2022-11-15T08:18:17;96062.06;;;0.77;100.00
2192;BME280;1102;49.718;11.902;2022-11-15T08:21:03;96044.44;;;0.69;100.00
2192;BME280;1102;49.718;11.902;2022-11-15T08:23:48;96054.72;;;0.89;100.00
2192;BME280;1102;49.718;11.902;2022-11-15T08:26:34;96025.09;;;0.80;100.00
2192;BME280;1102;49.718;11.902;2022-11-15T08:29:19;96041.59;;;1.04;100.00
2192;BME280;1102;49.718;11.902;2022-11-15T08:32:05;96047.19;;;1.22;100.00
2192;BME280;1102;49.718;11.902;2022-11-15T08:34:50;96035.09;;;1.36;100.00
2192;BME280;1102;49.718;11.902;2022-11-15T08:37:35;96032.97;;;1.67;100.00
2192;BME280;1102;49.718;11.902;2022-11-15T08:40:21;96041.13;;;1.84;100.00
2192;BME280;1102;49.718;11.902;2022-11-15T08:43:08;96003.63;;;1.56;100.00
2192;BME280;1102;49.718;11.902;2022-11-15T08:45:56;96022.25;;;2.16;100.00
2192;BME280;1102;49.718;11.902;2022-11-15T08:48:41;96032.75;;;2.11;100.00
2192;BME280;1102;49.718;11.902;2022-11-15T08:51:27;96013.16;;;2.14;100.00
2192;BME280;1102;49.718;11.902;2022-11-15T08:54:12;96019.88;;;2.20;100.00
2192;BME280;1102;49.718;11.902;2022-11-15T08:56:57;96015.50;;;2.34;100.00
2192;BME280;1102;49.718;11.902;2022-11-15T08:59:43;95979.97;;;2.19;100.00
2192;BME280;1102;49.718;11.902;2022-11-15T09:02:28;96000.34;;;2.36;100.00
2192;BME280;1102;49.718;11.902;2022-11-15T09:05:13;96007.69;;;2.53;100.00
2192;BME280;1102;49.718;11.902;2022-11-15T09:08:00;96015.31;;;2.68;100.00
2192;BME280;1102;49.718;11.902;2022-11-15T09:10:57;96020.72;;;2.90;100.00
2192;BME280;1102;49.718;11.902;2022-11-15T09:13:43;96027.81;;;3.22;100.00
2192;BME280;1102;49.718;11.902;2022-11-15T09:16:30;96032.13;;;3.73;100.00
2192;BME280;1102;49.718;11.902;2022-11-15T09:19:15;96002.06;;;3.76;100.00
2192;BME280;1102;49.718;11.902;2022-11-15T09:22:00;96019.94;;;3.96;100.00
2192;BME280;1102;49.718;11.902;2022-11-15T09:24:45;96025.09;;;4.01;100.00
2192;BME280;1102;49.718;11.902;2022-11-15T09:27:31;96007.84;;;4.00;100.00
2192;BME280;1102;49.718;11.902;2022-11-15T09:30:17;96004.84;;;4.21;100.00
2192;BME280;1102;49.718;11.902;2022-11-15T09:33:10;96006.78;;;4.29;100.00
2192;BME280;1102;49.718;11.902;2022-11-15T09:36:07;96020.97;;;4.50;100.00
2192;BME280;1102;49.718;11.902;2022-11-15T09:38:52;95992.84;;;4.56;100.00
2192;BME280;1102;49.718;11.902;2022-11-15T09:44:40;96008.63;;;4.87;100.00
2192;BME280;1102;49.718;11.902;2022-11-15T09:47:34;96009.97;;;4.98;100.00
2192;BME280;1102;49.718;11.902;2022-11-15T09:50:44;96000.03;;;5.09;100.00
2192;BME280;1102;49.718;11.902;2022-11-15T09:53:21;96003.44;;;5.18;100.00
2192;BME280;1102;49.718;11.902;2022-11-15T09:56:20;96004.81;;;5.38;100.00
2192;BME280;1102;49.718;11.902;2022-11-15T10:01:52;95984.84;;;5.50;100.00
2192;BME280;1102;49.718;11.902;2022-11-15T10:04:22;95974.00;;;5.43;100.00
2192;BME280;1102;49.718;11.902;2022-11-15T10:06:55;95962.78;;;5.60;100.00
2192;BME280;1102;49.718;11.902;2022-11-15T10:09:39;95960.25;;;5.77;100.00
2192;BME280;1102;49.718;11.902;2022-11-15T10:12:11;95980.91;;;6.18;100.00
2192;BME280;1102;49.718;11.902;2022-11-15T10:14:39;95981.19;;;6.08;100.00
2192;BME280;1102;49.718;11.902;2022-11-15T10:17:25;95982.94;;;6.21;100.00
2192;BME280;1102;49.718;11.902;2022-11-15T10:20:19;95968.84;;;6.09;100.00
2192;BME280;1102;49.718;11.902;2022-11-15T10:22:59;95974.25;;;6.12;100.00
2192;BME280;1102;49.718;11.902;2022-11-15T10:25:32;95943.34;;;6.01;100.00
2192;BME280;1102;49.718;11.902;2022-11-15T10:30:39;95959.78;;;6.41;100.00
2192;BME280;1102;49.718;11.902;2022-11-15T10:33:31;95958.09;;;6.53;100.00
2192;BME280;1102;49.718;11.902;2022-11-15T10:36:28;95947.28;;;6.72;100.00
2192;BME280;1102;49.718;11.902;2022-11-15T10:38:56;95956.22;;;6.80;100.00
2192;BME280;1102;49.718;11.902;2022-11-15T10:49:27;95932.91;;;7.34;100.00
2192;BME280;1102;49.718;11.902;2022-11-15T10:52:00;95915.28;;;7.34;100.00
2192;BME280;1102;49.718;11.902;2022-11-15T10:54:34;95924.38;;;7.46;100.00
2192;BME280;1102;49.718;11.902;2022-11-15T10:57:32;95907.81;;;7.45;100.00
2192;BME280;1102;49.718;11.902;2022-11-15T11:02:56;95918.97;;;7.80;100.00
2192;BME280;1102;49.718;11.902;2022-11-15T11:05:34;95901.97;;;7.98;100.00
2192;BME280;1102;49.718;11.902;2022-11-15T11:10:38;95900.97;;;8.12;100.00
2192;BME280;1102;49.718;11.902;2022-11-15T11:13:27;95888.41;;;8.17;100.00
2192;BME280;1102;49.718;11.902;2022-11-15T11:21:42;95852.28;;;8.39;100.00
2192;BME280;1102;49.718;11.902;2022-11-15T11:24:36;95881.38;;;8.63;100.00
2192;BME280;1102;49.718;11.902;2022-11-15T11:35:23;95869.88;;;9.25;100.00
2192;BME280;1102;49.718;11.902;2022-11-15T11:37:55;95876.16;;;9.57;100.00
2192;BME280;1102;49.718;11.902;2022-11-15T11:40:29;95871.88;;;9.65;100.00
2192;BME280;1102;49.718;11.902;2022-11-15T11:49:06;95791.84;;;9.12;100.00
2192;BME280;1102;49.718;11.902;2022-11-15T11:51:39;95831.53;;;9.64;100.00
2192;BME280;1102;49.718;11.902;2022-11-15T11:54:24;95846.25;;;9.65;100.00
2192;BME280;1102;49.718;11.902;2022-11-15T11:56:52;95848.50;;;10.03;100.00
2192;BME280;1102;49.718;11.902;2022-11-15T11:59:43;95845.00;;;9.87;100.00
2192;BME280;1102;49.718;11.902;2022-11-15T12:02:25;95842.25;;;9.84;100.00
2192;BME280;1102;49.718;11.902;2022-11-15T12:05:01;95839.00;;;10.15;100.00
2192;BME280;1102;49.718;11.902;2022-11-15T12:07:32;95841.53;;;10.51;100.00
2192;BME280;1102;49.718;11.902;2022-11-15T12:10:24;95844.53;;;10.50;100.00
2192;BME280;1102;49.718;11.902;2022-11-15T12:13:02;95844.13;;;10.63;100.00
2192;BME280;1102;49.718;11.902;2022-11-15T12:15:56;95837.66;;;10.33;100.00
2192;BME280;1102;49.718;11.902;2022-11-15T12:18:24;95832.75;;;10.47;100.00
2192;BME280;1102;49.718;11.902;2022-11-15T12:20:55;95838.16;;;10.39;100.00
2192;BME280;1102;49.718;11.902;2022-11-15T12:23:28;95836.03;;;10.28;100.00
2192;BME280;1102;49.718;11.902;2022-11-15T12:26:01;95826.63;;;10.43;100.00
2192;BME280;1102;49.718;11.902;2022-11-15T12:34:03;95777.03;;;10.24;100.00
2192;BME280;1102;49.718;11.902;2022-11-15T12:36:38;95815.06;;;10.95;100.00
2192;BME280;1102;49.718;11.902;2022-11-15T12:39:10;95811.25;;;10.92;100.00
2192;BME280;1102;49.718;11.902;2022-11-15T12:41:44;95793.06;;;10.91;100.00
2192;BME280;1102;49.718;11.902;2022-11-15T13:02:21;95795.72;;;11.22;100.00
2192;BME280;1102;49.718;11.902;2022-11-15T13:04:50;95805.09;;;11.36;100.00
2192;BME280;1102;49.718;11.902;2022-11-15T13:17:52;95793.56;;;13.21;100.00
2192;BME280;1102;49.718;11.902;2022-11-15T13:20:30;95792.59;;;13.33;100.00
2192;BME280;1102;49.718;11.902;2022-11-15T13:23:16;95785.41;;;13.11;100.00
2192;BME280;1102;49.718;11.902;2022-11-15T13:31:19;95775.44;;;12.58;100.00
2192;BME280;1102;49.718;11.902;2022-11-15T13:33:48;95749.03;;;12.23;100.00
2192;BME280;1102;49.718;11.902;2022-11-15T13:36:22;95769.22;;;11.73;100.00
2192;BME280;1102;49.718;11.902;2022-11-15T13:39:05;95747.94;;;11.15;100.00
2192;BME280;1102;49.718;11.902;2022-11-15T13:41:36;95763.88;;;11.03;100.00
2192;BME280;1102;49.718;11.902;2022-11-15T13:44:28;95752.81;;;10.82;100.00
2192;BME280;1102;49.718;11.902;2022-11-15T13:47:13;95749.66;;;10.60;100.00
2192;BME280;1102;49.718;11.902;2022-11-15T13:49:40;95754.75;;;10.53;100.00
2192;BME280;1102;49.718;11.902;2022-11-15T13:52:13;95747.75;;;10.45;100.00
2192;BME280;1102;49.718;11.902;2022-11-15T13:57:22;95720.44;;;10.25;100.00
2192;BME280;1102;49.718;11.902;2022-11-15T13:59:53;95745.63;;;10.51;100.00
2192;BME280;1102;49.718;11.902;2022-11-15T14:02:32;95740.88;;;10.56;100.00
2192;BME280;1102;49.718;11.902;2022-11-15T14:05:14;95726.53;;;10.42;100.00
2192;BME280;1102;49.718;11.902;2022-11-15T14:07:56;95731.28;;;10.36;100.00
2192;BME280;1102;49.718;11.902;2022-11-15T14:10:36;95714.75;;;10.39;100.00
2192;BME280;1102;49.718;11.902;2022-11-15T14:13:31;95708.59;;;10.35;100.00
2192;BME280;1102;49.718;11.902;2022-11-15T14:16:17;95708.41;;;10.28;100.00
2192;BME280;1102;49.718;11.902;2022-11-15T14:18:49;95694.94;;;10.17;100.00
2192;BME280;1102;49.718;11.902;2022-11-15T14:21:17;95681.44;;;10.06;100.00
2192;BME280;1102;49.718;11.902;2022-11-15T14:23:45;95710.44;;;10.19;100.00
2192;BME280;1102;49.718;11.902;2022-11-15T14:26:30;95699.63;;;10.24;100.00
2192;BME280;1102;49.718;11.902;2022-11-15T14:29:27;95695.75;;;10.33;100.00
2192;BME280;1102;49.718;11.902;2022-11-15T14:32:12;95695.06;;;10.68;100.00
2192;BME280;1102;49.718;11.902;2022-11-15T14:34:39;95683.09;;;10.90;100.00
2192;BME280;1102;49.718;11.902;2022-11-15T14:37:24;95682.78;;;11.27;100.00
2192;BME280;1102;49.718;11.902;2022-11-15T14:39:51;95655.38;;;11.00;100.00
2192;BME280;1102;49.718;11.902;2022-11-15T14:42:19;95679.97;;;11.19;100.00
2192;BME280;1102;49.718;11.902;2022-11-15T14:44:46;95643.91;;;11.11;100.00
2192;BME280;1102;49.718;11.902;2022-11-15T14:47:13;95660.13;;;11.10;100.00
2192;BME280;1102;49.718;11.902;2022-11-15T14:49:40;95665.19;;;10.99;100.00
2192;BME280;1102;49.718;11.902;2022-11-15T14:54:57;95641.63;;;10.59;100.00
2192;BME280;1102;49.718;11.902;2022-11-15T14:57:24;95651.94;;;10.48;100.00
2192;BME280;1102;49.718;11.902;2022-11-15T14:59:51;95652.28;;;10.31;100.00
2192;BME280;1102;49.718;11.902;2022-11-15T15:02:22;95656.19;;;10.21;100.00
2192;BME280;1102;49.718;11.902;2022-11-15T15:04:50;95652.03;;;10.08;100.00
2192;BME280;1102;49.718;11.902;2022-11-15T15:07:17;95635.38;;;9.76;100.00
2192;BME280;1102;49.718;11.902;2022-11-15T15:09:45;95646.59;;;9.73;100.00
2192;BME280;1102;49.718;11.902;2022-11-15T15:12:20;95632.66;;;9.44;100.00
2192;BME280;1102;49.718;11.902;2022-11-15T15:14:49;95625.00;;;9.27;100.00
2192;BME280;1102;49.718;11.902;2022-11-15T15:17:16;95633.28;;;9.13;100.00
2192;BME280;1102;49.718;11.902;2022-11-15T15:19:43;95597.09;;;8.86;100.00
2192;BME280;1102;49.718;11.902;2022-11-15T15:22:18;95646.06;;;8.99;100.00
2192;BME280;1102;49.718;11.902;2022-11-15T15:24:46;95643.34;;;8.83;100.00
2192;BME280;1102;49.718;11.902;2022-11-15T15:27:13;95606.81;;;8.45;100.00
2192;BME280;1102;49.718;11.902;2022-11-15T15:29:40;95638.41;;;8.57;100.00
2192;BME280;1102;49.718;11.902;2022-11-15T15:32:08;95639.06;;;8.54;100.00
2192;BME280;1102;49.718;11.902;2022-11-15T15:34:34;95637.22;;;8.43;100.00
2192;BME280;1102;49.718;11.902;2022-11-15T15:39:50;95630.78;;;8.19;100.00
2192;BME280;1102;49.718;11.902;2022-11-15T15:42:18;95638.59;;;8.16;100.00
2192;BME280;1102;49.718;11.902;2022-11-15T15:44:45;95630.63;;;7.91;100.00
2192;BME280;1102;49.718;11.902;2022-11-15T15:47:14;95619.19;;;7.42;100.00
2192;BME280;1102;49.718;11.902;2022-11-15T15:49:42;95634.47;;;7.28;100.00
2192;BME280;1102;49.718;11.902;2022-11-15T15:52:08;95599.28;;;6.99;100.00
2192;BME280;1102;49.718;11.902;2022-11-15T15:54:35;95629.41;;;7.23;100.00
2192;BME280;1102;49.718;11.902;2022-11-15T15:57:02;95610.50;;;7.08;100.00
2192;BME280;1102;49.718;11.902;2022-11-15T15:59:29;95629.47;;;7.14;100.00
2192;BME280;1102;49.718;11.902;2022-11-15T16:01:55;95615.38;;;6.98;100.00
2192;BME280;1102;49.718;11.902;2022-11-15T16:04:22;95606.13;;;6.71;100.00
2192;BME280;1102;49.718;11.902;2022-11-15T16:06:49;95623.44;;;6.63;100.00
2192;BME280;1102;49.718;11.902;2022-11-15T16:09:19;95615.00;;;6.78;100.00
2192;BME280;1102;49.718;11.902;2022-11-15T16:12:06;95607.13;;;6.58;100.00
2192;BME280;1102;49.718;11.902;2022-11-15T16:14:33;95616.28;;;6.72;100.00
2192;BME280;1102;49.718;11.902;2022-11-15T16:16:59;95598.06;;;6.46;100.00
2192;BME280;1102;49.718;11.902;2022-11-15T16:19:26;95592.34;;;6.15;100.00
2192;BME280;1102;49.718;11.902;2022-11-15T16:21:52;95597.97;;;5.96;100.00
2192;BME280;1102;49.718;11.902;2022-11-15T16:24:20;95603.53;;;5.95;100.00
2192;BME280;1102;49.718;11.902;2022-11-15T16:26:47;95609.22;;;5.97;100.00
2192;BME280;1102;49.718;11.902;2022-11-15T16:29:14;95582.72;;;5.81;100.00
2192;BME280;1102;49.718;11.902;2022-11-15T16:31:41;95607.88;;;5.90;100.00
2192;BME280;1102;49.718;11.902;2022-11-15T16:34:08;95605.72;;;5.75;100.00
2192;BME280;1102;49.718;11.902;2022-11-15T16:36:35;95604.66;;;5.68;100.00
2192;BME280;1102;49.718;11.902;2022-11-15T16:39:02;95610.22;;;5.66;100.00
2192;BME280;1102;49.718;11.902;2022-11-15T16:41:30;95604.66;;;5.68;100.00
2192;BME280;1102;49.718;11.902;2022-11-15T16:43:58;95603.56;;;5.69;100.00
2192;BME280;1102;49.718;11.902;2022-11-15T16:46:26;95567.81;;;5.47;100.00
2192;BME280;1102;49.718;11.902;2022-11-15T16:48:53;95602.22;;;5.62;100.00
2192;BME280;1102;49.718;11.902;2022-11-15T16:51:21;95602.25;;;5.37;100.00
2192;BME280;1102;49.718;11.902;2022-11-15T16:53:48;95557.56;;;4.90;100.00
2192;BME280;1102;49.718;11.902;2022-11-15T16:58:45;95595.31;;;4.97;100.00
2192;BME280;1102;49.718;11.902;2022-11-15T17:01:32;95599.19;;;5.09;100.00
2192;BME280;1102;49.718;11.902;2022-11-15T17:04:02;95597.03;;;5.11;100.00
2192;BME280;1102;49.718;11.902;2022-11-15T17:06:39;95563.72;;;4.94;100.00
2192;BME280;1102;49.718;11.902;2022-11-15T17:09:13;95580.97;;;5.03;100.00
2192;BME280;1102;49.718;11.902;2022-11-15T17:11:41;95601.94;;;5.12;100.00
2192;BME280;1102;49.718;11.902;2022-11-15T17:14:09;95556.66;;;4.86;100.00
2192;BME280;1102;49.718;11.902;2022-11-15T17:16:36;95548.16;;;4.80;100.00
2192;BME280;1102;49.718;11.902;2022-11-15T17:19:15;95599.47;;;5.16;100.00
2192;BME280;1102;49.718;11.902;2022-11-15T17:21:42;95581.44;;;4.88;100.00
2192;BME280;1102;49.718;11.902;2022-11-15T17:24:09;95595.78;;;5.17;100.00
2192;BME280;1102;49.718;11.902;2022-11-15T17:26:37;95602.06;;;5.33;100.00
2192;BME280;1102;49.718;11.902;2022-11-15T17:29:06;95573.75;;;4.83;100.00
2192;BME280;1102;49.718;11.902;2022-11-15T17:31:37;95597.47;;;5.21;100.00
2192;BME280;1102;49.718;11.902;2022-11-15T17:34:05;95600.84;;;5.04;100.00
2192;BME280;1102;49.718;11.902;2022-11-15T17:36:32;95580.06;;;4.91;100.00
2192;BME280;1102;49.718;11.902;2022-11-15T17:38:58;95583.44;;;4.91;100.00
2192;BME280;1102;49.718;11.902;2022-11-15T17:41:27;95596.38;;;4.88;100.00
2192;BME280;1102;49.718;11.902;2022-11-15T17:43:57;95596.84;;;4.72;100.00
2192;BME280;1102;49.718;11.902;2022-11-15T17:46:26;95529.31;;;4.26;100.00
2192;BME280;1102;49.718;11.902;2022-11-15T17:48:54;95578.75;;;4.36;100.00
2192;BME280;1102;49.718;11.902;2022-11-15T17:51:21;95554.50;;;4.13;100.00
2192;BME280;1102;49.718;11.902;2022-11-15T17:53:49;95554.56;;;4.22;100.00
2192;BME280;1102;49.718;11.902;2022-11-15T17:56:18;95570.59;;;4.29;100.00
2192;BME280;1102;49.718;11.902;2022-11-15T17:58:53;95553.97;;;4.34;100.00
2192;BME280;1102;49.718;11.902;2022-11-15T18:01:32;95576.81;;;4.59;100.00
2192;BME280;1102;49.718;11.902;2022-11-15T18:04:00;95572.50;;;4.72;100.00
2192;BME280;1102;49.718;11.902;2022-11-15T18:06:30;95574.06;;;4.82;100.00
2192;BME280;1102;49.718;11.902;2022-11-15T18:08:58;95574.53;;;4.84;100.00
2192;BME280;1102;49.718;11.902;2022-11-15T18:11:36;95580.66;;;4.70;100.00
2192;BME280;1102;49.718;11.902;2022-11-15T18:14:09;95510.41;;;4.29;100.00
2192;BME280;1102;49.718;11.902;2022-11-15T18:16:38;95532.88;;;4.39;100.00
2192;BME280;1102;49.718;11.902;2022-11-15T18:19:06;95552.75;;;4.49;100.00
2192;BME280;1102;49.718;11.902;2022-11-15T18:21:40;95559.22;;;4.42;100.00
2192;BME280;1102;49.718;11.902;2022-11-15T18:24:33;95555.06;;;4.41;100.00
2192;BME280;1102;49.718;11.902;2022-11-15T18:27:02;95551.78;;;4.27;100.00
2192;BME280;1102;49.718;11.902;2022-11-15T18:29:29;95532.69;;;4.18;100.00
2192;BME280;1102;49.718;11.902;2022-11-15T18:31:56;95556.25;;;4.27;100.00
2192;BME280;1102;49.718;11.902;2022-11-15T18:34:26;95558.84;;;4.18;100.00
2192;BME280;1102;49.718;11.902;2022-11-15T18:36:57;95553.94;;;4.17;100.00
2192;BME280;1102;49.718;11.902;2022-11-15T18:39:24;95553.13;;;4.07;100.00
2192;BME280;1102;49.718;11.902;2022-11-15T18:41:51;95520.75;;;3.86;100.00
2192;BME280;1102;49.718;11.902;2022-11-15T18:44:18;95521.97;;;3.80;100.00
2192;BME280;1102;49.718;11.902;2022-11-15T18:46:44;95546.50;;;4.01;100.00
2192;BME280;1102;49.718;11.902;2022-11-15T18:49:12;95517.06;;;3.87;100.00
2192;BME280;1102;49.718;11.902;2022-11-15T18:51:39;95544.78;;;3.97;100.00
2192;BME280;1102;49.718;11.902;2022-11-15T18:54:11;95543.72;;;3.98;100.00
2192;BME280;1102;49.718;11.902;2022-11-15T18:56:38;95516.59;;;3.76;100.00
2192;BME280;1102;49.718;11.902;2022-11-15T18:59:06;95517.25;;;3.60;100.00
2192;BME280;1102;49.718;11.902;2022-11-15T19:01:41;95530.69;;;3.67;100.00
2192;BME280;1102;49.718;11.902;2022-11-15T19:04:16;95499.75;;;3.60;100.00
2192;BME280;1102;49.718;11.902;2022-11-15T19:06:45;95532.88;;;3.82;100.00
2192;BME280;1102;49.718;11.902;2022-11-15T19:09:13;95535.34;;;3.87;100.00
2192;BME280;1102;49.718;11.902;2022-11-15T19:11:42;95538.06;;;3.73;100.00
2192;BME280;1102;49.718;11.902;2022-11-15T19:14:11;95537.03;;;3.74;100.00
2192;BME280;1102;49.718;11.902;2022-11-15T19:16:46;95511.31;;;3.68;100.00
2192;BME280;1102;49.718;11.902;2022-11-15T19:19:22;95535.66;;;3.85;100.00
2192;BME280;1102;49.718;11.902;2022-11-15T19:21:50;95528.38;;;3.74;100.00
2192;BME280;1102;49.718;11.902;2022-11-15T19:24:18;95540.84;;;3.68;100.00
2192;BME280;1102;49.718;11.902;2022-11-15T19:26:45;95524.31;;;3.50;100.00
2192;BME280;1102;49.718;11.902;2022-11-15T19:29:12;95514.88;;;3.41;100.00
2192;BME280;1102;49.718;11.902;2022-11-15T19:31:42;95512.13;;;3.46;100.00
2192;BME280;1102;49.718;11.902;2022-11-15T19:34:09;95526.00;;;3.55;100.00
2192;BME280;1102;49.718;11.902;2022-11-15T19:36:39;95531.53;;;3.53;100.00
2192;BME280;1102;49.718;11.902;2022-11-15T19:39:07;95505.66;;;3.35;100.00
2192;BME280;1102;49.718;11.902;2022-11-15T19:41:36;95525.78;;;3.34;100.00
2192;BME280;1102;49.718;11.902;2022-11-15T19:44:05;95524.56;;;3.40;100.00
2192;BME280;1102;49.718;11.902;2022-11-15T19:46:31;95513.03;;;3.41;100.00
2192;BME280;1102;49.718;11.902;2022-11-15T19:48:58;95520.53;;;3.34;100.00
2192;BME280;1102;49.718;11.902;2022-11-15T19:51:27;95501.31;;;3.30;100.00
2192;BME280;1102;49.718;11.902;2022-11-15T19:53:58;95507.34;;;3.39;100.00
2192;BME280;1102;49.718;11.902;2022-11-15T19:56:24;95499.66;;;3.34;100.00
2192;BME280;1102;49.718;11.902;2022-11-15T19:58:53;95456.00;;;3.04;100.00
2192;BME280;1102;49.718;11.902;2022-11-15T20:01:23;95504.88;;;3.34;100.00
2192;BME280;1102;49.718;11.902;2022-11-15T20:03:52;95512.56;;;3.39;100.00
2192;BME280;1102;49.718;11.902;2022-11-15T20:06:22;95508.97;;;3.58;100.00
2192;BME280;1102;49.718;11.902;2022-11-15T20:08:49;95511.84;;;3.47;100.00
2192;BME280;1102;49.718;11.902;2022-11-15T20:11:17;95511.88;;;3.56;100.00
2192;BME280;1102;49.718;11.902;2022-11-15T20:13:43;95519.25;;;3.54;100.00
2192;BME280;1102;49.718;11.902;2022-11-15T20:16:20;95523.88;;;3.57;100.00
2192;BME280;1102;49.718;11.902;2022-11-15T20:18:49;95492.75;;;3.47;100.00